sensor_id;sensor_type;location;lat;lon;timestamp;P1;durP1;ratioP1;P2;durP2;ratioP2
70450;SDS011;58869;51.982;4.450;2022-08-19T00:00:14;9.54;;;9.54;;
70450;SDS011;58869;51.982;4.450;2022-08-19T00:02:40;10.18;;;10.18;;
70450;SDS011;58869;51.982;4.450;2022-08-19T00:05:07;9.63;;;9.63;;
70450;SDS011;58869;51.982;4.450;2022-08-19T00:07:34;10.17;;;10.17;;
70450;SDS011;58869;51.982;4.450;2022-08-19T00:10:00;10.54;;;10.54;;
70450;SDS011;58869;51.982;4.450;2022-08-19T00:12:27;9.73;;;9.73;;
70450;SDS011;58869;51.982;4.450;2022-08-19T00:14:53;10.42;;;10.42;;
70450;SDS011;58869;51.982;4.450;2022-08-19T00:17:19;10.29;;;10.29;;
70450;SDS011;58869;51.982;4.450;2022-08-19T00:19:45;9.82;;;9.82;;
70450;SDS011;58869;51.982;4.450;2022-08-19T00:22:11;8.95;;;8.95;;
70450;SDS011;58869;51.982;4.450;2022-08-19T00:24:37;9.67;;;9.67;;
70450;SDS011;58869;51.982;4.450;2022-08-19T00:27:04;8.73;;;8.73;;
70450;SDS011;58869;51.982;4.450;2022-08-19T00:29:30;10.38;;;10.38;;
70450;SDS011;58869;51.982;4.450;2022-08-19T00:31:56;10.57;;;10.57;;
70450;SDS011;58869;51.982;4.450;2022-08-19T00:34:23;10.04;;;10.04;;
70450;SDS011;58869;51.982;4.450;2022-08-19T00:36:54;9.66;;;9.66;;
70450;SDS011;58869;51.982;4.450;2022-08-19T00:39:20;9.13;;;9.13;;
70450;SDS011;58869;51.982;4.450;2022-08-19T00:41:46;8.93;;;8.93;;
70450;SDS011;58869;51.982;4.450;2022-08-19T00:44:22;9.68;;;9.68;;
70450;SDS011;58869;51.982;4.450;2022-08-19T00:46:50;9.74;;;9.74;;
70450;SDS011;58869;51.982;4.450;2022-08-19T00:52:04;9.31;;;9.31;;
70450;SDS011;58869;51.982;4.450;2022-08-19T00:54:35;10.49;;;10.49;;
70450;SDS011;58869;51.982;4.450;2022-08-19T00:57:02;10.37;;;10.37;;
70450;SDS011;58869;51.982;4.450;2022-08-19T00:59:31;10.52;;;10.52;;
70450;SDS011;58869;51.982;4.450;2022-08-19T01:02:00;10.58;;;10.58;;
70450;SDS011;58869;51.982;4.450;2022-08-19T01:04:26;9.86;;;9.86;;
70450;SDS011;58869;51.982;4.450;2022-08-19T01:06:52;10.27;;;10.27;;
70450;SDS011;58869;51.982;4.450;2022-08-19T01:09:17;10.64;;;10.64;;
70450;SDS011;58869;51.982;4.450;2022-08-19T01:11:43;11.59;;;11.59;;
70450;SDS011;58869;51.982;4.450;2022-08-19T01:14:10;11.84;;;11.84;;
70450;SDS011;58869;51.982;4.450;2022-08-19T01:16:35;12.00;;;12.00;;
70450;SDS011;58869;51.982;4.450;2022-08-19T01:19:04;12.14;;;12.14;;
70450;SDS011;58869;51.982;4.450;2022-08-19T01:21:49;11.26;;;11.26;;
70450;SDS011;58869;51.982;4.450;2022-08-19T01:24:29;11.34;;;11.34;;
70450;SDS011;58869;51.982;4.450;2022-08-19T01:26:55;10.87;;;10.87;;
70450;SDS011;58869;51.982;4.450;2022-08-19T01:29:21;11.42;;;11.42;;
70450;SDS011;58869;51.982;4.450;2022-08-19T01:31:46;10.89;;;10.89;;
70450;SDS011;58869;51.982;4.450;2022-08-19T01:34:12;11.46;;;11.46;;
70450;SDS011;58869;51.982;4.450;2022-08-19T01:36:39;11.58;;;11.58;;
70450;SDS011;58869;51.982;4.450;2022-08-19T01:39:11;11.58;;;11.58;;
70450;SDS011;58869;51.982;4.450;2022-08-19T01:41:40;10.56;;;10.56;;
70450;SDS011;58869;51.982;4.450;2022-08-19T01:44:07;10.68;;;10.68;;
70450;SDS011;58869;51.982;4.450;2022-08-19T01:46:34;10.80;;;10.80;;
70450;SDS011;58869;51.982;4.450;2022-08-19T01:49:01;10.29;;;10.29;;
70450;SDS011;58869;51.982;4.450;2022-08-19T01:51:27;10.48;;;10.48;;
70450;SDS011;58869;51.982;4.450;2022-08-19T01:53:53;11.67;;;11.67;;
70450;SDS011;58869;51.982;4.450;2022-08-19T01:56:19;12.75;;;12.75;;
70450;SDS011;58869;51.982;4.450;2022-08-19T01:58:47;13.80;;;13.80;;
70450;SDS011;58869;51.982;4.450;2022-08-19T02:01:23;15.36;;;15.35;;
70450;SDS011;58869;51.982;4.450;2022-08-19T02:03:49;18.36;;;18.26;;
70450;SDS011;58869;51.982;4.450;2022-08-19T02:06:18;19.22;;;19.18;;
70450;SDS011;58869;51.982;4.450;2022-08-19T02:08:44;19.00;;;18.89;;
70450;SDS011;58869;51.982;4.450;2022-08-19T02:11:21;20.45;;;20.40;;
70450;SDS011;58869;51.982;4.450;2022-08-19T02:13:49;21.45;;;21.17;;
70450;SDS011;58869;51.982;4.450;2022-08-19T02:16:16;22.77;;;22.70;;
70450;SDS011;58869;51.982;4.450;2022-08-19T02:18:43;23.46;;;23.06;;
70450;SDS011;58869;51.982;4.450;2022-08-19T02:21:08;24.44;;;24.28;;
70450;SDS011;58869;51.982;4.450;2022-08-19T02:23:34;24.95;;;24.59;;
70450;SDS011;58869;51.982;4.450;2022-08-19T02:25:59;26.36;;;25.78;;
70450;SDS011;58869;51.982;4.450;2022-08-19T02:28:25;26.22;;;25.46;;
70450;SDS011;58869;51.982;4.450;2022-08-19T02:30:51;25.75;;;25.51;;
70450;SDS011;58869;51.982;4.450;2022-08-19T02:33:16;26.67;;;25.87;;
70450;SDS011;58869;51.982;4.450;2022-08-19T02:35:43;27.25;;;26.45;;
70450;SDS011;58869;51.982;4.450;2022-08-19T02:38:09;25.83;;;25.31;;
70450;SDS011;58869;51.982;4.450;2022-08-19T02:40:55;27.15;;;26.39;;
70450;SDS011;58869;51.982;4.450;2022-08-19T02:43:23;26.91;;;26.35;;
70450;SDS011;58869;51.982;4.450;2022-08-19T02:45:49;26.13;;;25.63;;
70450;SDS011;58869;51.982;4.450;2022-08-19T02:48:17;26.72;;;26.21;;
70450;SDS011;58869;51.982;4.450;2022-08-19T02:50:44;26.77;;;26.50;;
70450;SDS011;58869;51.982;4.450;2022-08-19T02:53:10;26.64;;;26.27;;
70450;SDS011;58869;51.982;4.450;2022-08-19T02:55:36;27.29;;;26.68;;
70450;SDS011;58869;51.982;4.450;2022-08-19T02:58:08;26.29;;;25.88;;
70450;SDS011;58869;51.982;4.450;2022-08-19T03:00:34;28.33;;;27.52;;
70450;SDS011;58869;51.982;4.450;2022-08-19T03:02:59;27.95;;;27.32;;
70450;SDS011;58869;51.982;4.450;2022-08-19T03:05:25;28.50;;;27.98;;
70450;SDS011;58869;51.982;4.450;2022-08-19T03:07:52;28.14;;;28.00;;
70450;SDS011;58869;51.982;4.450;2022-08-19T03:10:17;27.43;;;27.13;;
70450;SDS011;58869;51.982;4.450;2022-08-19T03:12:43;28.19;;;27.76;;
70450;SDS011;58869;51.982;4.450;2022-08-19T03:15:10;29.18;;;28.29;;
70450;SDS011;58869;51.982;4.450;2022-08-19T03:17:35;27.82;;;27.43;;
70450;SDS011;58869;51.982;4.450;2022-08-19T03:20:03;28.46;;;27.91;;
70450;SDS011;58869;51.982;4.450;2022-08-19T03:22:29;27.95;;;27.50;;
70450;SDS011;58869;51.982;4.450;2022-08-19T03:24:55;29.16;;;28.65;;
70450;SDS011;58869;51.982;4.450;2022-08-19T03:27:21;28.66;;;28.40;;
70450;SDS011;58869;51.982;4.450;2022-08-19T03:29:46;28.51;;;27.96;;
70450;SDS011;58869;51.982;4.450;2022-08-19T03:32:12;28.70;;;28.18;;
70450;SDS011;58869;51.982;4.450;2022-08-19T03:34:38;29.03;;;28.36;;
70450;SDS011;58869;51.982;4.450;2022-08-19T03:37:08;29.40;;;28.81;;
70450;SDS011;58869;51.982;4.450;2022-08-19T03:39:36;29.17;;;28.92;;
70450;SDS011;58869;51.982;4.450;2022-08-19T03:42:02;28.54;;;28.08;;
70450;SDS011;58869;51.982;4.450;2022-08-19T03:44:28;28.36;;;28.12;;
70450;SDS011;58869;51.982;4.450;2022-08-19T03:46:56;28.34;;;28.05;;
70450;SDS011;58869;51.982;4.450;2022-08-19T03:49:23;28.83;;;28.22;;
70450;SDS011;58869;51.982;4.450;2022-08-19T03:51:52;28.44;;;27.93;;
70450;SDS011;58869;51.982;4.450;2022-08-19T03:54:20;28.22;;;27.79;;
70450;SDS011;58869;51.982;4.450;2022-08-19T03:56:48;29.35;;;28.61;;
70450;SDS011;58869;51.982;4.450;2022-08-19T03:59:20;30.47;;;29.84;;
70450;SDS011;58869;51.982;4.450;2022-08-19T04:01:51;32.07;;;31.35;;
70450;SDS011;58869;51.982;4.450;2022-08-19T04:04:17;33.63;;;33.10;;
70450;SDS011;58869;51.982;4.450;2022-08-19T04:06:43;36.33;;;35.44;;
70450;SDS011;58869;51.982;4.450;2022-08-19T04:09:09;38.80;;;37.80;;
70450;SDS011;58869;51.982;4.450;2022-08-19T04:11:38;40.76;;;39.65;;
70450;SDS011;58869;51.982;4.450;2022-08-19T04:14:07;42.17;;;41.16;;
70450;SDS011;58869;51.982;4.450;2022-08-19T04:16:37;43.65;;;42.46;;
70450;SDS011;58869;51.982;4.450;2022-08-19T04:19:03;46.17;;;44.26;;
70450;SDS011;58869;51.982;4.450;2022-08-19T04:21:30;46.30;;;44.33;;
70450;SDS011;58869;51.982;4.450;2022-08-19T04:23:56;47.55;;;45.49;;
70450;SDS011;58869;51.982;4.450;2022-08-19T04:26:24;46.41;;;44.71;;
70450;SDS011;58869;51.982;4.450;2022-08-19T04:28:51;46.29;;;44.23;;
70450;SDS011;58869;51.982;4.450;2022-08-19T04:31:20;45.26;;;43.40;;
70450;SDS011;58869;51.982;4.450;2022-08-19T04:33:51;43.05;;;41.78;;
70450;SDS011;58869;51.982;4.450;2022-08-19T04:36:28;42.40;;;40.81;;
70450;SDS011;58869;51.982;4.450;2022-08-19T04:38:57;41.65;;;40.48;;
70450;SDS011;58869;51.982;4.450;2022-08-19T04:41:24;41.23;;;40.08;;
70450;SDS011;58869;51.982;4.450;2022-08-19T04:44:11;40.44;;;39.22;;
70450;SDS011;58869;51.982;4.450;2022-08-19T04:46:38;41.02;;;39.63;;
70450;SDS011;58869;51.982;4.450;2022-08-19T04:49:06;39.44;;;37.86;;
70450;SDS011;58869;51.982;4.450;2022-08-19T04:51:32;39.06;;;37.73;;
70450;SDS011;58869;51.982;4.450;2022-08-19T04:53:59;39.01;;;37.99;;
70450;SDS011;58869;51.982;4.450;2022-08-19T04:56:27;37.65;;;36.47;;
70450;SDS011;58869;51.982;4.450;2022-08-19T04:58:54;38.08;;;37.04;;
70450;SDS011;58869;51.982;4.450;2022-08-19T05:01:21;39.51;;;38.04;;
70450;SDS011;58869;51.982;4.450;2022-08-19T05:03:50;39.25;;;38.54;;
70450;SDS011;58869;51.982;4.450;2022-08-19T05:06:17;39.07;;;37.88;;
70450;SDS011;58869;51.982;4.450;2022-08-19T05:08:45;38.52;;;37.63;;
70450;SDS011;58869;51.982;4.450;2022-08-19T05:11:17;39.86;;;38.69;;
70450;SDS011;58869;51.982;4.450;2022-08-19T05:13:46;38.90;;;38.07;;
70450;SDS011;58869;51.982;4.450;2022-08-19T05:16:13;39.02;;;38.26;;
70450;SDS011;58869;51.982;4.450;2022-08-19T05:18:40;39.29;;;38.45;;
70450;SDS011;58869;51.982;4.450;2022-08-19T05:21:25;39.14;;;38.25;;
70450;SDS011;58869;51.982;4.450;2022-08-19T05:24:10;38.65;;;37.76;;
70450;SDS011;58869;51.982;4.450;2022-08-19T05:26:42;37.85;;;37.32;;
70450;SDS011;58869;51.982;4.450;2022-08-19T05:29:13;38.73;;;37.88;;
70450;SDS011;58869;51.982;4.450;2022-08-19T05:31:40;38.20;;;37.43;;
70450;SDS011;58869;51.982;4.450;2022-08-19T05:34:08;37.97;;;37.23;;
70450;SDS011;58869;51.982;4.450;2022-08-19T05:36:39;37.40;;;36.83;;
70450;SDS011;58869;51.982;4.450;2022-08-19T05:39:06;37.17;;;36.61;;
70450;SDS011;58869;51.982;4.450;2022-08-19T05:41:34;36.45;;;35.97;;
70450;SDS011;58869;51.982;4.450;2022-08-19T05:44:04;37.34;;;36.89;;
70450;SDS011;58869;51.982;4.450;2022-08-19T05:46:34;37.01;;;36.31;;
70450;SDS011;58869;51.982;4.450;2022-08-19T05:49:06;36.75;;;36.04;;
70450;SDS011;58869;51.982;4.450;2022-08-19T05:51:33;36.51;;;35.77;;
70450;SDS011;58869;51.982;4.450;2022-08-19T05:54:00;35.96;;;35.51;;
70450;SDS011;58869;51.982;4.450;2022-08-19T05:56:26;35.46;;;35.21;;
70450;SDS011;58869;51.982;4.450;2022-08-19T05:58:52;35.84;;;35.33;;
70450;SDS011;58869;51.982;4.450;2022-08-19T06:01:19;36.67;;;36.09;;
70450;SDS011;58869;51.982;4.450;2022-08-19T06:03:45;36.96;;;36.37;;
70450;SDS011;58869;51.982;4.450;2022-08-19T06:06:11;36.70;;;36.11;;
70450;SDS011;58869;51.982;4.450;2022-08-19T06:08:38;37.46;;;36.67;;
70450;SDS011;58869;51.982;4.450;2022-08-19T06:11:21;37.00;;;36.43;;
70450;SDS011;58869;51.982;4.450;2022-08-19T06:14:01;36.44;;;36.29;;
70450;SDS011;58869;51.982;4.450;2022-08-19T06:16:30;36.93;;;36.72;;
70450;SDS011;58869;51.982;4.450;2022-08-19T06:18:57;37.16;;;36.57;;
70450;SDS011;58869;51.982;4.450;2022-08-19T06:21:26;38.62;;;37.63;;
70450;SDS011;58869;51.982;4.450;2022-08-19T06:23:53;37.56;;;37.03;;
70450;SDS011;58869;51.982;4.450;2022-08-19T06:26:19;37.61;;;37.39;;
70450;SDS011;58869;51.982;4.450;2022-08-19T06:28:47;37.33;;;37.31;;
70450;SDS011;58869;51.982;4.450;2022-08-19T06:31:17;38.34;;;38.08;;
70450;SDS011;58869;51.982;4.450;2022-08-19T06:33:48;36.64;;;36.34;;
70450;SDS011;58869;51.982;4.450;2022-08-19T06:36:24;35.85;;;35.72;;
70450;SDS011;58869;51.982;4.450;2022-08-19T06:38:59;35.73;;;35.56;;
70450;SDS011;58869;51.982;4.450;2022-08-19T06:41:26;34.77;;;34.75;;
70450;SDS011;58869;51.982;4.450;2022-08-19T06:43:54;32.39;;;32.25;;
70450;SDS011;58869;51.982;4.450;2022-08-19T06:46:19;31.39;;;31.33;;
70450;SDS011;58869;51.982;4.450;2022-08-19T06:48:46;30.81;;;30.49;;
70450;SDS011;58869;51.982;4.450;2022-08-19T06:51:13;31.78;;;31.54;;
70450;SDS011;58869;51.982;4.450;2022-08-19T06:53:41;29.98;;;29.94;;
70450;SDS011;58869;51.982;4.450;2022-08-19T06:56:10;29.99;;;29.74;;
70450;SDS011;58869;51.982;4.450;2022-08-19T06:58:36;29.68;;;29.59;;
70450;SDS011;58869;51.982;4.450;2022-08-19T07:01:03;30.82;;;30.31;;
70450;SDS011;58869;51.982;4.450;2022-08-19T07:03:33;29.71;;;29.66;;
70450;SDS011;58869;51.982;4.450;2022-08-19T07:06:12;28.94;;;28.85;;
70450;SDS011;58869;51.982;4.450;2022-08-19T07:08:40;29.54;;;29.29;;
70450;SDS011;58869;51.982;4.450;2022-08-19T07:11:08;29.45;;;29.44;;
70450;SDS011;58869;51.982;4.450;2022-08-19T07:13:36;30.20;;;29.85;;
70450;SDS011;58869;51.982;4.450;2022-08-19T07:16:06;30.09;;;29.62;;
70450;SDS011;58869;51.982;4.450;2022-08-19T07:18:33;29.37;;;29.26;;
70450;SDS011;58869;51.982;4.450;2022-08-19T07:21:12;28.16;;;28.07;;
70450;SDS011;58869;51.982;4.450;2022-08-19T07:23:39;26.81;;;26.72;;
70450;SDS011;58869;51.982;4.450;2022-08-19T07:28:41;23.90;;;23.84;;
70450;SDS011;58869;51.982;4.450;2022-08-19T07:31:13;24.93;;;24.86;;
70450;SDS011;58869;51.982;4.450;2022-08-19T07:33:46;24.06;;;23.98;;
70450;SDS011;58869;51.982;4.450;2022-08-19T07:36:14;23.17;;;23.17;;
70450;SDS011;58869;51.982;4.450;2022-08-19T07:38:42;22.34;;;22.34;;
70450;SDS011;58869;51.982;4.450;2022-08-19T07:41:13;22.52;;;22.52;;
70450;SDS011;58869;51.982;4.450;2022-08-19T07:43:42;23.81;;;23.81;;
70450;SDS011;58869;51.982;4.450;2022-08-19T07:46:09;24.22;;;24.22;;
70450;SDS011;58869;51.982;4.450;2022-08-19T07:48:36;24.40;;;24.40;;
70450;SDS011;58869;51.982;4.450;2022-08-19T07:51:03;23.05;;;23.05;;
70450;SDS011;58869;51.982;4.450;2022-08-19T07:53:31;22.13;;;22.13;;
70450;SDS011;58869;51.982;4.450;2022-08-19T07:55:58;21.52;;;21.52;;
70450;SDS011;58869;51.982;4.450;2022-08-19T07:58:27;20.70;;;20.70;;
70450;SDS011;58869;51.982;4.450;2022-08-19T08:00:52;20.01;;;20.01;;
70450;SDS011;58869;51.982;4.450;2022-08-19T08:03:19;19.00;;;19.00;;
70450;SDS011;58869;51.982;4.450;2022-08-19T08:06:06;18.30;;;18.30;;
70450;SDS011;58869;51.982;4.450;2022-08-19T08:08:51;18.42;;;18.42;;
70450;SDS011;58869;51.982;4.450;2022-08-19T08:11:35;18.40;;;18.36;;
70450;SDS011;58869;51.982;4.450;2022-08-19T08:14:01;17.45;;;17.44;;
70450;SDS011;58869;51.982;4.450;2022-08-19T08:16:27;17.30;;;17.30;;
70450;SDS011;58869;51.982;4.450;2022-08-19T08:18:56;16.98;;;16.98;;
70450;SDS011;58869;51.982;4.450;2022-08-19T08:21:22;15.95;;;15.95;;
70450;SDS011;58869;51.982;4.450;2022-08-19T08:23:47;15.32;;;15.32;;
70450;SDS011;58869;51.982;4.450;2022-08-19T08:26:13;14.10;;;14.10;;
70450;SDS011;58869;51.982;4.450;2022-08-19T08:28:40;14.16;;;14.16;;
70450;SDS011;58869;51.982;4.450;2022-08-19T08:31:05;14.55;;;14.55;;
70450;SDS011;58869;51.982;4.450;2022-08-19T08:33:31;14.17;;;14.17;;
70450;SDS011;58869;51.982;4.450;2022-08-19T08:35:56;13.20;;;13.20;;
70450;SDS011;58869;51.982;4.450;2022-08-19T08:38:22;12.97;;;12.97;;
70450;SDS011;58869;51.982;4.450;2022-08-19T08:40:48;12.31;;;12.31;;
70450;SDS011;58869;51.982;4.450;2022-08-19T08:43:21;12.61;;;12.61;;
70450;SDS011;58869;51.982;4.450;2022-08-19T08:51:20;11.75;;;11.75;;
70450;SDS011;58869;51.982;4.450;2022-08-19T08:53:50;11.40;;;11.40;;
70450;SDS011;58869;51.982;4.450;2022-08-19T08:56:18;11.56;;;11.56;;
70450;SDS011;58869;51.982;4.450;2022-08-19T08:58:47;10.80;;;10.80;;
70450;SDS011;58869;51.982;4.450;2022-08-19T09:01:19;10.96;;;10.96;;
70450;SDS011;58869;51.982;4.450;2022-08-19T09:03:46;11.07;;;11.07;;
70450;SDS011;58869;51.982;4.450;2022-08-19T09:11:34;11.02;;;11.02;;
70450;SDS011;58869;51.982;4.450;2022-08-19T09:14:32;11.34;;;11.34;;
70450;SDS011;58869;51.982;4.450;2022-08-19T09:16:59;11.38;;;11.38;;
70450;SDS011;58869;51.982;4.450;2022-08-19T09:19:25;10.49;;;10.49;;
70450;SDS011;58869;51.982;4.450;2022-08-19T09:21:51;9.15;;;9.15;;
70450;SDS011;58869;51.982;4.450;2022-08-19T09:24:16;9.07;;;9.07;;
70450;SDS011;58869;51.982;4.450;2022-08-19T09:26:42;9.64;;;9.64;;
70450;SDS011;58869;51.982;4.450;2022-08-19T09:29:08;9.68;;;9.68;;
70450;SDS011;58869;51.982;4.450;2022-08-19T09:31:35;8.49;;;8.49;;
70450;SDS011;58869;51.982;4.450;2022-08-19T09:34:01;7.16;;;7.16;;
70450;SDS011;58869;51.982;4.450;2022-08-19T09:36:29;7.20;;;7.20;;
70450;SDS011;58869;51.982;4.450;2022-08-19T09:38:57;7.10;;;7.10;;
70450;SDS011;58869;51.982;4.450;2022-08-19T09:41:25;8.27;;;8.27;;
70450;SDS011;58869;51.982;4.450;2022-08-19T09:43:52;9.59;;;9.59;;
70450;SDS011;58869;51.982;4.450;2022-08-19T09:46:21;8.99;;;8.99;;
70450;SDS011;58869;51.982;4.450;2022-08-19T09:48:48;7.30;;;7.30;;
70450;SDS011;58869;51.982;4.450;2022-08-19T09:51:17;6.18;;;6.18;;
70450;SDS011;58869;51.982;4.450;2022-08-19T09:53:47;5.60;;;5.60;;
70450;SDS011;58869;51.982;4.450;2022-08-19T09:56:16;5.89;;;5.89;;
70450;SDS011;58869;51.982;4.450;2022-08-19T09:58:43;6.33;;;6.33;;
70450;SDS011;58869;51.982;4.450;2022-08-19T10:01:14;6.73;;;6.73;;
70450;SDS011;58869;51.982;4.450;2022-08-19T10:03:46;6.61;;;6.61;;
70450;SDS011;58869;51.982;4.450;2022-08-19T10:06:17;7.11;;;7.11;;
70450;SDS011;58869;51.982;4.450;2022-08-19T10:08:43;6.71;;;6.71;;
70450;SDS011;58869;51.982;4.450;2022-08-19T10:11:10;6.62;;;6.62;;
70450;SDS011;58869;51.982;4.450;2022-08-19T10:13:35;6.75;;;6.75;;
70450;SDS011;58869;51.982;4.450;2022-08-19T10:16:06;6.14;;;6.14;;
70450;SDS011;58869;51.982;4.450;2022-08-19T10:18:35;6.43;;;6.43;;
70450;SDS011;58869;51.982;4.450;2022-08-19T10:21:06;5.07;;;5.07;;
70450;SDS011;58869;51.982;4.450;2022-08-19T10:23:34;4.24;;;4.24;;
70450;SDS011;58869;51.982;4.450;2022-08-19T10:26:01;3.96;;;3.96;;
70450;SDS011;58869;51.982;4.450;2022-08-19T10:28:28;3.80;;;3.80;;
70450;SDS011;58869;51.982;4.450;2022-08-19T10:30:54;4.05;;;4.05;;
70450;SDS011;58869;51.982;4.450;2022-08-19T10:33:19;4.10;;;4.10;;
70450;SDS011;58869;51.982;4.450;2022-08-19T10:35:45;3.89;;;3.89;;
70450;SDS011;58869;51.982;4.450;2022-08-19T10:38:11;3.38;;;3.38;;
70450;SDS011;58869;51.982;4.450;2022-08-19T10:40:37;3.12;;;3.12;;
70450;SDS011;58869;51.982;4.450;2022-08-19T10:43:03;3.31;;;3.31;;
70450;SDS011;58869;51.982;4.450;2022-08-19T10:45:28;2.78;;;2.78;;
70450;SDS011;58869;51.982;4.450;2022-08-19T10:47:54;2.50;;;2.50;;
70450;SDS011;58869;51.982;4.450;2022-08-19T10:50:19;2.63;;;2.63;;
70450;SDS011;58869;51.982;4.450;2022-08-19T10:53:04;2.18;;;2.18;;
70450;SDS011;58869;51.982;4.450;2022-08-19T10:55:31;2.00;;;2.00;;
70450;SDS011;58869;51.982;4.450;2022-08-19T10:58:16;2.20;;;2.20;;
70450;SDS011;58869;51.982;4.450;2022-08-19T11:00:54;2.55;;;2.55;;
70450;SDS011;58869;51.982;4.450;2022-08-19T11:03:21;2.70;;;2.70;;
70450;SDS011;58869;51.982;4.450;2022-08-19T11:06:09;2.91;;;2.91;;
70450;SDS011;58869;51.982;4.450;2022-08-19T11:08:36;3.19;;;3.19;;
70450;SDS011;58869;51.982;4.450;2022-08-19T11:11:05;3.04;;;3.04;;
70450;SDS011;58869;51.982;4.450;2022-08-19T11:13:33;3.26;;;3.26;;
70450;SDS011;58869;51.982;4.450;2022-08-19T11:16:02;3.04;;;3.04;;
70450;SDS011;58869;51.982;4.450;2022-08-19T11:18:40;2.68;;;2.68;;
70450;SDS011;58869;51.982;4.450;2022-08-19T11:23:39;2.49;;;2.49;;
70450;SDS011;58869;51.982;4.450;2022-08-19T11:26:05;2.32;;;2.32;;
70450;SDS011;58869;51.982;4.450;2022-08-19T11:28:31;1.95;;;1.95;;
70450;SDS011;58869;51.982;4.450;2022-08-19T11:30:57;1.89;;;1.89;;
70450;SDS011;58869;51.982;4.450;2022-08-19T11:36:06;2.44;;;2.44;;
70450;SDS011;58869;51.982;4.450;2022-08-19T11:38:32;2.32;;;2.32;;
70450;SDS011;58869;51.982;4.450;2022-08-19T11:41:01;2.27;;;2.27;;
70450;SDS011;58869;51.982;4.450;2022-08-19T11:43:30;2.33;;;2.33;;
70450;SDS011;58869;51.982;4.450;2022-08-19T11:45:56;2.52;;;2.52;;
70450;SDS011;58869;51.982;4.450;2022-08-19T11:48:23;2.55;;;2.55;;
70450;SDS011;58869;51.982;4.450;2022-08-19T11:50:49;2.98;;;2.98;;
70450;SDS011;58869;51.982;4.450;2022-08-19T11:53:22;3.08;;;3.08;;
70450;SDS011;58869;51.982;4.450;2022-08-19T11:55:48;3.28;;;3.28;;
70450;SDS011;58869;51.982;4.450;2022-08-19T11:58:16;3.13;;;3.13;;
70450;SDS011;58869;51.982;4.450;2022-08-19T12:00:43;3.39;;;3.39;;
70450;SDS011;58869;51.982;4.450;2022-08-19T12:03:10;2.84;;;2.84;;
70450;SDS011;58869;51.982;4.450;2022-08-19T12:05:37;3.57;;;3.56;;
70450;SDS011;58869;51.982;4.450;2022-08-19T12:08:04;4.07;;;3.82;;
70450;SDS011;58869;51.982;4.450;2022-08-19T12:10:29;2.77;;;2.77;;
70450;SDS011;58869;51.982;4.450;2022-08-19T12:12:55;3.23;;;3.23;;
70450;SDS011;58869;51.982;4.450;2022-08-19T12:15:20;2.89;;;2.89;;
70450;SDS011;58869;51.982;4.450;2022-08-19T12:17:45;2.64;;;2.64;;
70450;SDS011;58869;51.982;4.450;2022-08-19T12:20:13;2.82;;;2.82;;
70450;SDS011;58869;51.982;4.450;2022-08-19T12:22:40;2.71;;;2.71;;
70450;SDS011;58869;51.982;4.450;2022-08-19T12:25:08;2.97;;;2.97;;
70450;SDS011;58869;51.982;4.450;2022-08-19T12:27:36;3.09;;;3.09;;
70450;SDS011;58869;51.982;4.450;2022-08-19T12:30:04;2.91;;;2.91;;
70450;SDS011;58869;51.982;4.450;2022-08-19T12:32:31;3.19;;;3.19;;
70450;SDS011;58869;51.982;4.450;2022-08-19T12:34:56;2.93;;;2.93;;
70450;SDS011;58869;51.982;4.450;2022-08-19T12:37:22;2.88;;;2.88;;
70450;SDS011;58869;51.982;4.450;2022-08-19T12:39:48;2.84;;;2.84;;
70450;SDS011;58869;51.982;4.450;2022-08-19T12:42:13;3.13;;;3.13;;
70450;SDS011;58869;51.982;4.450;2022-08-19T12:44:41;3.17;;;3.17;;
70450;SDS011;58869;51.982;4.450;2022-08-19T12:47:08;3.18;;;3.18;;
70450;SDS011;58869;51.982;4.450;2022-08-19T12:49:35;3.32;;;3.32;;
70450;SDS011;58869;51.982;4.450;2022-08-19T12:52:05;3.66;;;3.66;;
70450;SDS011;58869;51.982;4.450;2022-08-19T12:54:33;3.53;;;3.53;;
70450;SDS011;58869;51.982;4.450;2022-08-19T12:57:00;3.03;;;3.03;;
70450;SDS011;58869;51.982;4.450;2022-08-19T12:59:26;2.81;;;2.81;;
70450;SDS011;58869;51.982;4.450;2022-08-19T13:01:52;2.83;;;2.83;;
70450;SDS011;58869;51.982;4.450;2022-08-19T13:04:18;2.98;;;2.98;;
70450;SDS011;58869;51.982;4.450;2022-08-19T13:06:44;2.72;;;2.72;;
70450;SDS011;58869;51.982;4.450;2022-08-19T13:09:09;3.14;;;3.14;;
70450;SDS011;58869;51.982;4.450;2022-08-19T13:11:36;3.01;;;3.01;;
70450;SDS011;58869;51.982;4.450;2022-08-19T13:14:04;2.51;;;2.51;;
70450;SDS011;58869;51.982;4.450;2022-08-19T13:16:31;2.24;;;2.24;;
70450;SDS011;58869;51.982;4.450;2022-08-19T13:18:57;2.31;;;2.31;;
70450;SDS011;58869;51.982;4.450;2022-08-19T13:21:24;2.40;;;2.40;;
70450;SDS011;58869;51.982;4.450;2022-08-19T13:23:52;2.24;;;2.24;;
70450;SDS011;58869;51.982;4.450;2022-08-19T13:26:18;2.50;;;2.50;;
70450;SDS011;58869;51.982;4.450;2022-08-19T13:28:44;2.69;;;2.69;;
70450;SDS011;58869;51.982;4.450;2022-08-19T13:31:30;2.91;;;2.91;;
70450;SDS011;58869;51.982;4.450;2022-08-19T13:34:17;1.99;;;1.99;;
70450;SDS011;58869;51.982;4.450;2022-08-19T13:36:44;1.84;;;1.84;;
70450;SDS011;58869;51.982;4.450;2022-08-19T13:39:09;1.68;;;1.68;;
70450;SDS011;58869;51.982;4.450;2022-08-19T13:41:35;1.69;;;1.69;;
70450;SDS011;58869;51.982;4.450;2022-08-19T13:44:03;1.77;;;1.77;;
70450;SDS011;58869;51.982;4.450;2022-08-19T13:46:29;1.71;;;1.71;;
70450;SDS011;58869;51.982;4.450;2022-08-19T13:48:55;1.64;;;1.64;;
70450;SDS011;58869;51.982;4.450;2022-08-19T13:51:21;1.89;;;1.89;;
70450;SDS011;58869;51.982;4.450;2022-08-19T13:53:47;1.95;;;1.95;;
70450;SDS011;58869;51.982;4.450;2022-08-19T13:56:13;1.88;;;1.88;;
70450;SDS011;58869;51.982;4.450;2022-08-19T13:58:40;1.49;;;1.49;;
70450;SDS011;58869;51.982;4.450;2022-08-19T14:01:07;1.69;;;1.69;;
70450;SDS011;58869;51.982;4.450;2022-08-19T14:03:33;1.50;;;1.50;;
70450;SDS011;58869;51.982;4.450;2022-08-19T14:05:59;1.53;;;1.53;;
70450;SDS011;58869;51.982;4.450;2022-08-19T14:08:25;1.76;;;1.76;;
70450;SDS011;58869;51.982;4.450;2022-08-19T14:10:53;1.78;;;1.78;;
70450;SDS011;58869;51.982;4.450;2022-08-19T14:13:19;2.07;;;2.07;;
70450;SDS011;58869;51.982;4.450;2022-08-19T14:15:47;2.39;;;2.39;;
70450;SDS011;58869;51.982;4.450;2022-08-19T14:18:13;2.01;;;2.01;;
70450;SDS011;58869;51.982;4.450;2022-08-19T14:20:40;1.82;;;1.82;;
70450;SDS011;58869;51.982;4.450;2022-08-19T14:23:06;2.02;;;2.02;;
70450;SDS011;58869;51.982;4.450;2022-08-19T14:25:33;2.21;;;2.21;;
70450;SDS011;58869;51.982;4.450;2022-08-19T14:27:59;2.43;;;2.43;;
70450;SDS011;58869;51.982;4.450;2022-08-19T14:30:32;2.79;;;2.79;;
70450;SDS011;58869;51.982;4.450;2022-08-19T14:32:59;2.56;;;2.56;;
70450;SDS011;58869;51.982;4.450;2022-08-19T14:35:26;2.46;;;2.46;;
70450;SDS011;58869;51.982;4.450;2022-08-19T14:37:54;2.45;;;2.45;;
70450;SDS011;58869;51.982;4.450;2022-08-19T14:40:21;2.44;;;2.44;;
70450;SDS011;58869;51.982;4.450;2022-08-19T14:42:52;2.32;;;2.32;;
70450;SDS011;58869;51.982;4.450;2022-08-19T14:45:24;2.47;;;2.47;;
70450;SDS011;58869;51.982;4.450;2022-08-19T14:47:51;2.64;;;2.64;;
70450;SDS011;58869;51.982;4.450;2022-08-19T14:50:17;2.44;;;2.44;;
70450;SDS011;58869;51.982;4.450;2022-08-19T14:52:43;2.17;;;2.17;;
70450;SDS011;58869;51.982;4.450;2022-08-19T14:55:12;2.32;;;2.32;;
70450;SDS011;58869;51.982;4.450;2022-08-19T14:57:40;2.90;;;2.90;;
70450;SDS011;58869;51.982;4.450;2022-08-19T15:00:06;2.85;;;2.85;;